Time;durP1;ratioP1;P1;durP2;ratioP2;P2;SDS_P1;SDS_P2;PMS_P1;PMS_P2;Temp;Humidity;BMP_temperature;BMP_pressure;BME280_temperature;BME280_humidity;BME280_pressure;Samples;Min_cycle;Max_cycle;Signal;HPM_P1;HPM_P2
2022/02/02 00:02:16;;;;;;;94.30;44.70;;;;;;;3.30;68.69;98732.52;25029;1313;3051900;-62
2022/02/02 00:04:24;;;;;;;94.00;46.00;;;;;;;3.12;69.03;98738.27;25056;1313;3055364;-62
2022/02/02 00:07:08;;;;;;;100.10;48.00;;;;;;;2.98;69.52;98734.02;25042;1313;3051147;-64
2022/02/02 00:09:40;;;;;;;100.10;44.70;;;;;;;2.87;69.67;98732.38;25058;1313;3071205;-63
2022/02/02 00:17:56;;;;;;;101.90;47.60;;;;;;;2.61;70.49;98725.98;25076;1316;3054017;-62
2022/02/02 00:21:03;;;;;;;108.40;49.30;;;;;;;2.51;70.82;98727.05;25069;1313;3059255;-63
2022/02/02 00:23:33;;;;;;;121.10;54.00;;;;;;;2.45;70.99;98724.71;25094;1313;3050358;-64
2022/02/02 00:26:08;;;;;;;109.50;48.50;;;;;;;2.34;71.39;98723.91;25143;1313;3053658;-61
2022/02/02 00:28:41;;;;;;;114.10;47.50;;;;;;;2.25;71.71;98724.10;25122;1313;3051096;-63
2022/02/02 00:31:17;;;;;;;100.40;47.20;;;;;;;2.19;71.97;98706.69;25081;1313;3068978;-63
2022/02/02 00:33:56;;;;;;;104.10;43.70;;;;;;;2.15;72.07;98698.73;25122;1313;3048865;-62
2022/02/02 00:36:33;;;;;;;98.30;41.20;;;;;;;2.16;72.04;98692.64;25077;1313;3052973;-63
2022/02/02 00:39:03;;;;;;;98.60;38.00;;;;;;;2.19;71.80;98685.59;25157;1313;3051963;-62
2022/02/02 00:41:31;;;;;;;97.20;35.60;;;;;;;2.22;71.65;98688.77;25081;1313;3026361;-65
2022/02/02 00:44:02;;;;;;;89.90;36.10;;;;;;;2.25;71.22;98689.70;25102;1313;3026398;-61
2022/02/02 00:46:31;;;;;;;95.20;35.30;;;;;;;2.28;70.95;98698.73;25098;1316;3052812;-61
2022/02/02 00:49:02;;;;;;;95.00;33.70;;;;;;;2.28;70.60;98703.24;25107;1313;3026466;-63
2022/02/02 00:51:39;;;;;;;94.90;34.20;;;;;;;2.24;70.69;98700.98;25081;1313;3052056;-64
2022/02/02 00:54:20;;;;;;;90.50;34.20;;;;;;;2.26;70.51;98696.05;25124;1313;3054733;-62
2022/02/02 00:56:50;;;;;;;76.00;32.70;;;;;;;2.31;70.21;98698.46;25063;1313;3058696;-64
2022/02/02 00:59:21;;;;;;;84.30;31.40;;;;;;;2.31;70.21;98694.49;25072;1313;3026257;-63
2022/02/02 01:01:50;;;;;;;96.70;33.00;;;;;;;2.32;69.84;98693.94;25124;1313;3030236;-63
2022/02/02 01:04:19;;;;;;;77.30;28.70;;;;;;;2.35;69.39;98691.21;25049;1316;3029229;-63
2022/02/02 01:07:13;;;;;;;81.00;28.40;;;;;;;2.36;68.82;98684.60;25161;1313;3026563;-61
2022/02/02 01:09:49;;;;;;;75.00;27.50;;;;;;;2.40;68.49;98680.46;25118;1313;3051267;-63
2022/02/02 01:28:25;;;;;;;63.60;22.90;;;;;;;2.14;67.96;98658.17;25092;1313;3072396;-62
2022/02/02 01:30:54;;;;;;;63.30;21.30;;;;;;;2.19;67.30;98656.06;25135;1313;3026687;-61
2022/02/02 01:33:24;;;;;;;54.30;20.70;;;;;;;2.15;66.12;98660.38;25152;1313;3026499;-60
2022/02/02 01:35:53;;;;;;;52.80;21.60;;;;;;;2.05;66.06;98659.05;25082;1313;3026426;-69
2022/02/02 01:38:24;;;;;;;59.40;22.20;;;;;;;2.06;66.40;98659.67;25104;1313;3048964;-61
2022/02/02 01:40:58;;;;;;;61.80;23.50;;;;;;;2.08;66.79;98663.58;25101;1313;3026514;-62
2022/02/02 01:43:32;;;;;;;70.90;25.80;;;;;;;2.03;67.44;98664.09;25088;1313;3051055;-62
2022/02/02 01:46:09;;;;;;;66.20;26.20;;;;;;;2.08;67.88;98660.48;25112;1313;3055323;-62
2022/02/02 01:52:19;;;;;;;77.20;29.40;;;;;;;2.00;69.62;98658.20;25102;1313;3056173;-61
2022/02/02 01:54:36;;;;;;;79.10;29.60;;;;;;;1.99;70.46;98657.89;25063;1313;3054033;-62
2022/02/02 01:57:19;;;;;;;73.80;30.80;;;;;;;2.01;70.99;98658.30;25087;1313;3067541;-64
2022/02/02 01:59:49;;;;;;;87.40;29.30;;;;;;;2.10;71.32;98653.67;25076;1313;3051771;-61
2022/02/02 02:02:18;;;;;;;78.90;26.30;;;;;;;2.68;69.99;98655.28;25137;1313;3026615;-63
2022/02/02 02:04:50;;;;;;;75.10;28.00;;;;;;;3.38;67.89;98649.40;25085;1313;3071121;-62
2022/02/02 02:07:22;;;;;;;72.20;27.30;;;;;;;3.42;66.74;98646.45;25032;1313;3026381;-63
2022/02/02 02:09:53;;;;;;;86.00;30.10;;;;;;;3.25;67.15;98643.20;25099;1313;3026220;-62
2022/02/02 02:12:23;;;;;;;71.60;28.90;;;;;;;3.05;67.46;98640.95;25071;1313;3028072;-61
2022/02/02 02:17:23;;;;;;;70.50;27.10;;;;;;;2.68;68.86;98650.98;25062;1313;3026497;-62
2022/02/02 02:19:53;;;;;;;72.20;26.60;;;;;;;2.48;69.28;98643.02;25102;1313;3054164;-61
2022/02/02 02:22:33;;;;;;;65.90;24.00;;;;;;;2.28;69.89;98634.11;25071;1313;3026208;-62
2022/02/02 02:25:03;;;;;;;69.80;26.30;;;;;;;2.27;69.98;98627.95;25163;1313;3052787;-63
2022/02/02 02:27:32;;;;;;;79.30;28.80;;;;;;;2.15;70.12;98623.03;25066;1313;3026796;-62
2022/02/02 02:30:09;;;;;;;66.20;29.00;;;;;;;1.97;70.72;98628.05;25113;1313;3027193;-62
2022/02/02 02:57:43;;;;;;;52.70;19.00;;;;;;;1.72;71.52;98604.32;25116;1313;3055324;-60
2022/02/02 03:31:27;;;;;;;67.20;24.90;;;;;;;1.46;73.20;98566.28;25053;1313;3056545;-62
2022/02/02 04:06:56;;;;;;;59.40;23.70;;;;;;;2.21;70.00;98578.61;25051;1313;3055783;-62
2022/02/02 04:09:25;;;;;;;58.30;22.10;;;;;;;2.18;69.88;98574.03;25082;1313;3071668;-62
2022/02/02 04:12:09;;;;;;;50.80;23.30;;;;;;;2.08;70.61;98574.42;25111;1313;3026134;-65
2022/02/02 04:54:05;;;;;;;58.50;20.50;;;;;;;3.29;66.91;98555.45;25039;1313;3070317;-63
2022/02/02 05:53:01;;;;;;;59.00;25.50;;;;;;;1.08;73.95;98582.86;25135;1316;3030555;-64
2022/02/02 05:55:33;;;;;;;57.90;22.10;;;;;;;1.05;74.09;98586.09;25120;1312;3026801;-64
2022/02/02 05:58:02;;;;;;;48.80;21.30;;;;;;;1.61;72.80;98591.81;25114;1313;3027645;-64
2022/02/02 06:00:32;;;;;;;56.70;24.40;;;;;;;2.31;70.96;98589.59;25101;1313;3026498;-61
2022/02/02 06:03:01;;;;;;;59.00;23.80;;;;;;;2.60;69.98;98592.52;25106;1313;3057361;-64
2022/02/02 06:05:30;;;;;;;55.40;25.10;;;;;;;2.63;69.10;98590.70;25089;1313;3026906;-64
2022/02/02 06:08:02;;;;;;;65.70;26.70;;;;;;;2.47;69.18;98585.45;25073;1313;3054628;-63
2022/02/02 06:10:32;;;;;;;63.50;27.20;;;;;;;2.43;69.74;98592.37;25073;1313;3027099;-63
2022/02/02 06:13:01;;;;;;;65.70;27.30;;;;;;;2.35;69.60;98585.45;25113;1313;3028675;-62
2022/02/02 06:15:32;;;;;;;63.60;28.20;;;;;;;2.30;70.01;98589.26;25102;1313;3053831;-64
2022/02/02 06:18:02;;;;;;;74.10;28.00;;;;;;;2.20;70.11;98591.73;25136;1313;3026719;-62
2022/02/02 06:20:33;;;;;;;67.00;27.20;;;;;;;2.19;70.55;98588.48;25080;1313;3027394;-65
2022/02/02 06:23:13;;;;;;;61.50;25.60;;;;;;;2.15;70.65;98591.94;25139;1313;3026473;-63
2022/02/02 06:25:45;;;;;;;57.70;25.30;;;;;;;2.18;70.68;98590.60;25219;1313;3050521;-62
2022/02/02 06:28:24;;;;;;;59.20;24.00;;;;;;;2.16;70.68;98591.41;25200;1313;3026514;-62
2022/02/02 06:30:57;;;;;;;55.50;23.20;;;;;;;2.07;70.80;98590.37;25098;1313;3049402;-61
2022/02/02 06:33:33;;;;;;;58.10;23.30;;;;;;;2.01;70.84;98585.94;25108;1313;3051242;-62
2022/02/02 06:36:04;;;;;;;54.60;23.60;;;;;;;1.98;70.97;98581.40;25101;1313;3051295;-63
2022/02/02 06:38:33;;;;;;;54.80;21.70;;;;;;;1.98;70.71;98577.58;25129;1312;3026864;-63
2022/02/02 06:41:02;;;;;;;53.50;22.30;;;;;;;1.99;70.67;98575.48;25119;1313;3026540;-64
2022/02/02 06:43:32;;;;;;;59.10;22.90;;;;;;;1.95;70.90;98577.88;25066;1313;3053503;-64
2022/02/02 06:46:02;;;;;;;56.10;23.90;;;;;;;1.92;70.86;98573.15;25084;1313;3026737;-62
2022/02/02 06:48:32;;;;;;;55.20;24.30;;;;;;;1.90;71.20;98570.64;25085;1313;3027593;-64
2022/02/02 06:51:14;;;;;;;54.80;23.20;;;;;;;1.86;71.00;98572.69;25083;1313;3026864;-64
2022/02/02 06:54:05;;;;;;;55.60;23.30;;;;;;;1.93;70.82;98567.95;25086;1313;3052313;-63
2022/02/02 06:56:52;;;;;;;51.00;22.70;;;;;;;1.95;70.75;98564.75;25124;1313;3069793;-65
2022/02/02 06:59:43;;;;;;;59.60;25.30;;;;;;;1.97;70.93;98568.66;25052;1313;3049297;-64
2022/02/02 07:07:59;;;;;;;67.80;25.30;;;;;;;1.95;70.86;98573.73;25117;1313;3056049;-64
2022/02/02 07:30:03;;;;;;;52.50;22.90;;;;;;;2.04;70.62;98565.94;25082;1312;3058830;-63
2022/02/02 07:32:42;;;;;;;53.00;23.00;;;;;;;1.97;70.72;98568.82;25121;1313;3052185;-63
2022/02/02 07:35:26;;;;;;;46.40;20.20;;;;;;;2.07;70.82;98573.78;25155;1313;3053017;-63
2022/02/02 07:37:57;;;;;;;55.60;21.90;;;;;;;2.15;70.65;98570.00;25089;1313;3054269;-64
2022/02/02 07:40:27;;;;;;;51.00;22.20;;;;;;;2.25;70.47;98571.67;25163;1313;3026650;-63
2022/02/02 07:42:56;;;;;;;51.00;21.20;;;;;;;2.44;69.84;98569.67;25054;1313;3026958;-66
2022/02/02 07:45:25;;;;;;;49.80;21.20;;;;;;;2.55;69.25;98573.73;25157;1313;3053732;-64
2022/02/02 07:48:05;;;;;;;44.90;20.10;;;;;;;2.58;69.06;98568.92;25110;1313;3026354;-65
2022/02/02 07:50:35;;;;;;;53.10;23.10;;;;;;;2.68;68.86;98566.09;25176;1313;3053288;-63
2022/02/02 07:53:08;;;;;;;48.60;22.20;;;;;;;2.69;68.86;98569.17;25105;1313;3026667;-64
2022/02/02 07:55:40;;;;;;;55.00;22.90;;;;;;;2.65;69.10;98570.02;25069;1313;3026589;-65
2022/02/02 07:58:12;;;;;;;56.20;23.80;;;;;;;2.66;68.84;98570.13;25063;1316;3027284;-65
2022/02/02 08:00:42;;;;;;;61.40;25.00;;;;;;;2.73;68.70;98567.27;25075;1313;3026462;-65
2022/02/02 08:03:13;;;;;;;64.60;26.80;;;;;;;2.68;68.60;98568.52;25134;1313;3026974;-64
2022/02/02 08:05:46;;;;;;;77.40;29.40;;;;;;;2.66;68.81;98568.08;25203;1313;3027028;-65
2022/02/02 08:10:49;;;;;;;74.80;29.40;;;;;;;2.69;68.44;98568.46;25136;1313;3026611;-64
2022/02/02 08:13:37;;;;;;;67.50;30.50;;;;;;;2.64;68.81;98570.05;25053;1313;3027488;-63
2022/02/02 08:16:10;;;;;;;76.30;29.20;;;;;;;2.61;68.87;98575.03;25099;1313;3071168;-64
2022/02/02 08:18:42;;;;;;;69.20;28.10;;;;;;;2.67;69.19;98573.21;25115;1313;3026303;-64
2022/02/02 08:21:11;;;;;;;63.00;27.60;;;;;;;2.75;68.79;98574.78;25110;1313;3029826;-64
2022/02/02 08:23:40;;;;;;;61.00;26.80;;;;;;;2.82;68.98;98581.91;25178;1313;3026021;-64
2022/02/02 08:26:14;;;;;;;66.80;28.20;;;;;;;2.85;68.94;98577.12;25116;1313;3051519;-63
2022/02/02 08:28:44;;;;;;;71.70;28.30;;;;;;;2.84;68.83;98570.23;25113;1313;3054794;-64
2022/02/02 08:31:13;;;;;;;68.50;30.30;;;;;;;2.83;68.91;98576.02;25117;1313;3026447;-64
2022/02/02 08:33:47;;;;;;;74.20;30.00;;;;;;;2.81;69.06;98569.19;25110;1313;3026825;-64
2022/02/02 08:36:18;;;;;;;73.00;30.50;;;;;;;2.86;68.83;98569.80;25085;1313;3050375;-63
2022/02/02 08:38:59;;;;;;;68.10;29.60;;;;;;;2.99;68.62;98564.23;25083;1313;3027284;-64
2022/02/02 08:41:39;;;;;;;71.70;31.10;;;;;;;3.05;68.30;98563.27;25152;1313;3050543;-64
2022/02/02 08:44:12;;;;;;;67.10;30.30;;;;;;;3.05;68.33;98562.42;25122;1313;3068718;-64
2022/02/02 08:46:48;;;;;;;80.20;32.60;;;;;;;3.01;68.49;98558.25;25123;1313;3050066;-64
2022/02/02 08:49:17;;;;;;;88.90;32.90;;;;;;;3.00;69.05;98557.09;25074;1313;3054693;-62
2022/02/02 08:51:47;;;;;;;84.40;33.60;;;;;;;2.95;69.26;98557.48;25161;1313;3026478;-63
2022/02/02 09:02:27;;;;;;;114.50;43.40;;;;;;;2.88;69.07;98538.77;25145;1313;3058206;-64
2022/02/02 09:07:43;;;;;;;113.80;44.40;;;;;;;2.75;70.15;98540.72;25117;1313;3056138;-64
2022/02/02 09:10:18;;;;;;;111.50;44.50;;;;;;;2.77;70.15;98537.17;25205;1313;3026576;-64
2022/02/02 09:24:02;;;;;;;89.90;37.60;;;;;;;2.82;70.31;98530.73;25146;1313;3060443;-63
2022/02/02 09:32:15;;;;;;;79.30;34.30;;;;;;;2.73;70.50;98515.88;25208;1313;3053953;-63
2022/02/02 09:34:43;;;;;;;91.40;33.80;;;;;;;2.69;70.40;98506.38;25094;1313;3071349;-64
2022/02/02 09:37:12;;;;;;;82.40;33.70;;;;;;;2.68;70.62;98503.31;25202;1313;3026609;-64
2022/02/02 09:39:47;;;;;;;86.40;36.50;;;;;;;2.71;70.76;98504.74;25109;1313;3051070;-64
2022/02/02 09:42:19;;;;;;;71.30;30.50;;;;;;;2.75;70.23;98501.64;25177;1312;3068847;-64
2022/02/02 09:44:55;;;;;;;73.70;30.40;;;;;;;2.77;70.00;98504.33;25166;1313;3026388;-64
2022/02/02 09:47:30;;;;;;;66.90;30.70;;;;;;;2.85;70.14;98503.06;25124;1313;3052799;-64
2022/02/02 09:50:12;;;;;;;70.30;30.20;;;;;;;2.93;69.77;98493.41;25120;1312;3052702;-64
2022/02/02 09:52:50;;;;;;;69.80;29.30;;;;;;;2.95;69.77;98486.23;25065;1313;3058291;-61
2022/02/02 09:55:44;;;;;;;69.40;31.10;;;;;;;2.95;70.13;98485.69;25110;1313;3050715;-63
2022/02/02 09:58:29;;;;;;;82.80;33.20;;;;;;;3.02;69.64;98477.57;25146;1313;3056397;-62
2022/02/02 10:04:36;;;;;;;73.80;29.60;;;;;;;3.16;69.20;98455.16;25043;1313;3069814;-61
2022/02/02 10:13:16;;;;;;;62.70;28.00;;;;;;;3.49;68.24;98438.91;25033;1312;3052781;-64
2022/02/02 10:15:34;;;;;;;72.80;29.90;;;;;;;3.56;68.10;98428.89;25086;1312;3059066;-64
2022/02/02 10:18:08;;;;;;;61.20;27.90;;;;;;;3.62;68.35;98429.43;25097;1312;3026402;-64
2022/02/02 10:20:37;;;;;;;65.30;28.70;;;;;;;3.70;68.26;98425.41;25158;1313;3052695;-63
2022/02/02 10:23:07;;;;;;;66.60;29.30;;;;;;;3.77;68.24;98428.90;25083;1313;3026257;-62
2022/02/02 10:25:40;;;;;;;62.40;29.50;;;;;;;3.83;68.12;98430.66;25137;1311;3026945;-63
2022/02/02 10:28:21;;;;;;;57.80;27.60;;;;;;;3.90;67.78;98425.33;25135;1313;3029468;-63
2022/02/02 10:30:54;;;;;;;61.30;28.30;;;;;;;3.87;67.86;98431.84;25175;1313;3052937;-66
2022/02/02 10:33:25;;;;;;;61.70;27.60;;;;;;;3.93;67.62;98431.58;25102;1313;3026560;-65
2022/02/02 10:35:57;;;;;;;57.00;26.60;;;;;;;4.07;67.35;98429.66;25116;1313;3026895;-66
2022/02/02 10:38:31;;;;;;;69.30;30.40;;;;;;;4.08;67.21;98419.19;25163;1313;3026201;-64
2022/02/02 10:43:47;;;;;;;65.10;28.60;;;;;;;4.25;67.16;98414.38;25144;1313;3052530;-64
2022/02/02 10:46:21;;;;;;;60.70;26.70;;;;;;;4.29;66.83;98414.16;25120;1313;3068318;-64
2022/02/02 10:49:04;;;;;;;66.70;27.50;;;;;;;4.27;66.77;98405.91;25099;1313;3049551;-65
2022/02/02 10:51:45;;;;;;;58.10;27.20;;;;;;;4.25;67.02;98408.98;25113;1312;3056616;-65
2022/02/02 10:57:09;;;;;;;56.10;23.40;;;;;;;4.36;66.66;98397.15;25105;1313;3056952;-64
2022/02/02 11:07:46;;;;;;;84.40;31.90;;;;;;;4.20;66.93;98395.52;25127;1313;3071233;-66
2022/02/02 11:10:15;;;;;;;73.20;31.50;;;;;;;4.20;67.08;98399.37;25111;1316;3026561;-64
2022/02/02 11:12:43;;;;;;;73.70;31.80;;;;;;;4.07;67.64;98395.32;25081;1316;3026483;-65
2022/02/02 11:15:38;;;;;;;77.70;32.10;;;;;;;4.18;67.95;98398.73;25100;1316;3070430;-64
2022/02/02 11:18:14;;;;;;;88.90;35.20;;;;;;;4.26;67.60;98395.92;25105;1313;3049658;-65
2022/02/02 11:20:45;;;;;;;86.70;35.30;;;;;;;4.28;67.73;98397.02;25126;1313;3052161;-64
2022/02/02 11:23:14;;;;;;;100.20;36.00;;;;;;;4.31;67.67;98397.58;25099;1313;3026277;-64
2022/02/02 11:25:49;;;;;;;91.60;36.30;;;;;;;4.38;67.53;98394.27;25131;1313;3026861;-62
2022/02/02 11:28:36;;;;;;;111.90;41.20;;;;;;;4.38;67.66;98394.27;25105;1313;3051798;-68
2022/02/02 11:31:18;;;;;;;105.90;43.30;;;;;;;4.32;67.82;98389.35;25123;1313;3054719;-68
2022/02/02 11:33:57;;;;;;;114.80;42.20;;;;;;;4.27;68.13;98382.02;25128;1313;3056465;-67
2022/02/02 11:36:34;;;;;;;108.50;41.30;;;;;;;4.31;67.89;98380.93;25196;1313;3052833;-68
2022/02/02 11:39:06;;;;;;;107.40;41.00;;;;;;;4.23;68.07;98378.23;25177;1312;3051863;-68
2022/02/02 11:42:00;;;;;;;114.90;39.90;;;;;;;4.24;68.08;98371.27;25135;1312;3027532;-68
2022/02/02 11:44:53;;;;;;;121.80;45.70;;;;;;;4.22;68.08;98368.02;25085;1313;3069260;-67
2022/02/02 11:47:39;;;;;;;123.00;43.20;;;;;;;4.20;68.40;98367.43;25073;1313;3051695;-69
2022/02/02 11:50:08;;;;;;;126.40;42.80;;;;;;;4.26;68.33;98364.20;25210;1313;3055278;-69
2022/02/02 11:52:44;;;;;;;138.00;46.60;;;;;;;4.25;68.49;98367.89;25172;1313;3026736;-72
2022/02/02 11:55:15;;;;;;;131.80;45.80;;;;;;;4.23;68.56;98366.96;25220;1313;3056033;-68
2022/02/02 11:58:15;;;;;;;136.70;47.20;;;;;;;4.21;68.75;98370.55;25222;1313;3026374;-71
2022/02/02 12:01:28;;;;;;;117.90;42.30;;;;;;;4.13;69.03;98372.14;25236;1313;3052753;-73
2022/02/02 12:06:42;;;;;;;105.20;38.00;;;;;;;4.04;69.50;98378.17;25175;1313;3028592;-72
2022/02/02 12:47:01;;;;;;;87.20;34.70;;;;;;;4.44;68.33;98398.95;25105;1313;3055788;-69
2022/02/02 12:49:09;;;;;;;89.30;35.40;;;;;;;4.32;68.94;98404.26;25175;1313;3053997;-69
2022/02/02 12:57:09;;;;;;;93.50;37.20;;;;;;;4.07;70.03;98391.17;25173;1313;3052528;-70
2022/02/02 13:02:12;;;;;;;97.70;40.00;;;;;;;3.94;70.79;98391.98;25143;1315;3026466;-71
2022/02/02 13:04:42;;;;;;;96.40;38.10;;;;;;;3.84;71.35;98393.04;25137;1313;3053070;-70
2022/02/02 13:07:18;;;;;;;93.10;38.10;;;;;;;3.82;71.47;98389.64;25134;1313;3026541;-70
2022/02/02 13:09:49;;;;;;;99.40;39.00;;;;;;;3.85;71.58;98389.35;25175;1313;3056513;-69
2022/02/02 13:12:22;;;;;;;103.40;42.50;;;;;;;3.85;71.71;98394.20;25107;1313;3026838;-70
2022/02/02 13:15:43;;;;;;;114.90;41.00;;;;;;;3.86;71.66;98399.52;25121;1313;3026361;-68
2022/02/02 13:18:01;;;;;;;97.10;37.40;;;;;;;3.85;71.94;98402.48;25140;1313;3054551;-68
2022/02/02 13:20:38;;;;;;;81.40;32.20;;;;;;;3.88;71.81;98396.12;25211;1313;3069528;-69
2022/02/02 13:25:51;;;;;;;79.70;32.80;;;;;;;5.13;67.93;98380.19;25176;1313;3052768;-71
2022/02/02 13:28:41;;;;;;;100.30;36.80;;;;;;;5.16;67.53;98376.55;25320;1312;3052313;-69
2022/02/02 13:31:36;;;;;;;105.60;40.40;;;;;;;5.06;67.54;98381.06;25335;1313;3055438;-69
2022/02/02 13:34:20;;;;;;;98.50;44.70;;;;;;;4.80;68.44;98385.64;25269;1313;3053111;-69
2022/02/02 14:01:27;;;;;;;130.90;57.80;;;;;;;3.88;72.42;98376.19;25121;1313;3051694;-72
2022/02/02 14:09:57;;;;;;;94.70;44.10;;;;;;;4.60;70.53;98387.40;25197;1313;3026802;-73
2022/02/02 14:31:45;;;;;;;111.70;45.00;;;;;;;4.10;71.19;98387.91;25215;1313;3052957;-70
2022/02/02 14:34:14;;;;;;;110.60;42.40;;;;;;;4.01;71.52;98390.30;25176;1313;3052077;-71
2022/02/02 14:36:45;;;;;;;94.80;40.80;;;;;;;3.92;71.72;98385.68;25191;1313;3026533;-70
2022/02/02 14:39:29;;;;;;;100.00;37.70;;;;;;;3.84;71.97;98376.73;25265;1319;3052743;-70
2022/02/02 14:42:09;;;;;;;96.90;39.90;;;;;;;3.81;72.18;98384.17;25167;1313;3054195;-70
2022/02/02 14:44:39;;;;;;;109.20;40.30;;;;;;;3.71;72.56;98389.16;25140;1313;3057177;-72
2022/02/02 14:47:13;;;;;;;102.90;40.10;;;;;;;3.68;72.90;98386.03;25158;1313;3026127;-69
2022/02/02 15:33:17;;;;;;;100.20;37.30;;;;;;;4.93;70.45;98405.23;25224;1313;3026690;-73
2022/02/02 15:35:48;;;;;;;111.10;40.00;;;;;;;5.06;69.63;98401.77;25233;1313;3056015;-72
2022/02/02 15:38:25;;;;;;;106.80;39.60;;;;;;;4.88;69.90;98400.95;25142;1313;3026982;-71
2022/02/02 15:41:02;;;;;;;114.00;41.20;;;;;;;4.65;70.56;98401.66;25189;1313;3055918;-73
2022/02/02 15:43:53;;;;;;;114.80;41.10;;;;;;;4.44;71.28;98405.91;25172;1313;3051178;-74
2022/02/02 16:03:11;;;;;;;139.70;42.00;;;;;;;3.69;74.12;98415.27;25204;1316;3056072;-72
2022/02/02 16:05:46;;;;;;;;;;;;;;;4.30;72.85;98414.42;25195;1316;3052340;-74
2022/02/02 16:08:20;;;;;;;165.10;50.60;;;;;;;4.84;70.70;98408.67;25193;1316;3069482;-72
2022/02/02 16:13:34;;;;;;;157.90;51.50;;;;;;;4.78;70.45;98416.41;25211;1313;3052618;-73
2022/02/02 16:16:27;;;;;;;153.90;49.40;;;;;;;4.62;71.12;98415.73;25199;1313;3052121;-71
2022/02/02 16:38:18;;;;;;;131.50;44.20;;;;;;;4.54;72.88;98423.25;25188;1313;3068842;-71
2022/02/02 16:40:50;;;;;;;132.20;42.20;;;;;;;5.15;70.98;98420.32;25207;1313;3028542;-71
2022/02/02 16:43:20;;;;;;;127.80;42.60;;;;;;;5.18;70.19;98421.05;25197;1313;3026845;-69
2022/02/02 16:45:52;;;;;;;148.90;48.20;;;;;;;5.01;70.55;98419.03;25182;1313;3029346;-69
2022/02/02 16:48:22;;;;;;;140.60;48.40;;;;;;;4.81;71.10;98417.16;25203;1313;3026719;-68
2022/02/02 16:50:52;;;;;;;136.50;48.00;;;;;;;4.63;71.76;98418.80;25212;1313;3029002;-72
2022/02/02 16:53:32;;;;;;;135.90;49.20;;;;;;;4.45;72.20;98418.67;25263;1313;3028352;-72
2022/02/02 16:56:12;;;;;;;155.20;47.80;;;;;;;4.29;72.97;98420.92;25259;1316;3051582;-71
2022/02/02 17:31:46;;;;;;;171.20;57.00;;;;;;;4.02;74.35;98414.11;25212;1313;3026722;-70
2022/02/02 17:34:24;;;;;;;124.40;42.70;;;;;;;3.96;74.73;98412.52;25142;1313;3052813;-73
2022/02/02 17:37:16;;;;;;;87.60;31.10;;;;;;;3.90;75.35;98412.64;25209;1313;3052018;-71
2022/02/02 17:39:57;;;;;;;90.80;31.20;;;;;;;4.54;73.40;98407.45;25240;1313;3058947;-69
2022/02/02 17:43:01;;;;;;;76.10;29.00;;;;;;;5.04;71.05;98406.55;25203;1313;3048435;-71
2022/02/02 18:20:53;;;;;;;76.60;29.70;;;;;;;5.10;70.21;98400.46;25205;1313;3054786;-72
2022/02/02 18:29:07;;;;;;;103.00;37.00;;;;;;;4.46;72.19;98403.02;25216;1313;3050153;-71
2022/02/02 19:01:37;;;;;;;117.10;44.80;;;;;;;4.39;72.35;98391.09;25244;1313;3054056;-72
2022/02/02 19:37:36;;;;;;;69.60;29.50;;;;;;;4.09;72.78;98392.65;25156;1316;3051785;-72
2022/02/02 19:40:17;;;;;;;66.90;30.80;;;;;;;3.92;73.01;98402.16;25185;1316;3058858;-76
2022/02/02 19:56:51;;;;;;;68.50;29.40;;;;;;;4.07;73.27;98393.45;25210;1315;3026473;-74
2022/02/02 20:02:44;;;;;;;61.70;28.30;;;;;;;4.75;70.32;98393.86;25141;1318;3055825;-67
2022/02/02 20:05:34;;;;;;;70.10;29.60;;;;;;;4.55;70.47;98390.73;25161;1316;3052162;-71
2022/02/02 20:11:19;;;;;;;72.40;32.30;;;;;;;4.21;71.47;98390.83;25123;1316;3029957;-77
2022/02/02 20:13:26;;;;;;;72.20;30.20;;;;;;;3.99;72.11;98391.04;25151;1315;3069762;-74
2022/02/02 20:15:55;;;;;;;88.00;33.70;;;;;;;3.82;72.71;98394.01;25160;1316;3026941;-71
2022/02/02 20:18:47;;;;;;;94.50;36.90;;;;;;;3.71;73.26;98394.20;25138;1315;3051521;-71
2022/02/02 20:21:20;;;;;;;84.10;38.00;;;;;;;3.67;73.22;98395.95;25154;1316;3026634;-73
2022/02/02 20:23:50;;;;;;;98.70;37.60;;;;;;;3.60;73.64;98397.32;25092;1316;3025992;-71
2022/02/02 20:26:22;;;;;;;108.50;41.40;;;;;;;3.48;74.08;98401.37;25145;1315;3029820;-72
2022/02/02 20:28:52;;;;;;;136.20;49.30;;;;;;;3.43;73.97;98403.69;25134;1316;3026860;-68
2022/02/02 20:31:20;;;;;;;93.20;36.50;;;;;;;3.37;74.32;98409.68;25142;1316;3028483;-75
2022/02/02 20:33:50;;;;;;;100.90;37.90;;;;;;;3.89;72.93;98406.66;25159;1315;3055678;-73
2022/02/02 20:36:19;;;;;;;87.90;34.60;;;;;;;4.42;70.54;98403.75;25165;1316;3026798;-71
2022/02/02 20:38:47;;;;;;;66.80;28.20;;;;;;;4.50;69.41;98409.55;25128;1316;3050115;-71
2022/02/02 20:43:37;;;;;;;77.60;31.20;;;;;;;4.27;70.00;98412.17;31619;1319;3025886;-73
2022/02/02 21:08:25;;;;;;;63.60;28.90;;;;;;;3.28;73.44;98420.17;25149;1315;3051723;-74
2022/02/02 21:10:54;;;;;;;66.40;30.00;;;;;;;3.21;73.56;98426.56;25159;1316;3053080;-71
2022/02/02 21:13:42;;;;;;;54.90;25.30;;;;;;;3.17;74.17;98428.46;25170;1316;3026275;-73
2022/02/02 21:16:15;;;;;;;58.50;25.80;;;;;;;3.77;72.25;98421.08;25288;1316;3052146;-73
2022/02/02 21:18:47;;;;;;;60.50;25.60;;;;;;;4.33;70.32;98425.71;25170;1316;3054598;-73
2022/02/02 21:21:24;;;;;;;62.50;29.10;;;;;;;4.37;69.74;98427.09;25225;1315;3027091;-74
2022/02/02 21:26:47;;;;;;;71.20;33.90;;;;;;;4.00;70.69;98425.30;25163;1316;3049100;-72
2022/02/02 21:29:16;;;;;;;81.40;34.40;;;;;;;3.82;71.31;98422.56;25149;1316;3051567;-73
2022/02/02 21:31:46;;;;;;;63.80;30.90;;;;;;;3.69;71.80;98425.27;25120;1316;3026420;-70
2022/02/02 21:34:18;;;;;;;61.80;29.80;;;;;;;3.54;72.28;98428.77;25118;1316;3028476;-75
2022/02/02 21:36:47;;;;;;;58.20;28.40;;;;;;;3.48;72.90;98439.13;25156;1316;3050643;-71
2022/02/02 21:39:24;;;;;;;63.20;28.80;;;;;;;3.38;73.18;98441.13;25143;1316;3026644;-73
2022/02/02 21:41:54;;;;;;;65.40;29.80;;;;;;;3.31;73.32;98437.33;25165;1316;3048087;-72
2022/02/02 21:44:24;;;;;;;60.90;26.50;;;;;;;3.23;73.70;98436.83;25166;1315;3026076;-73
2022/02/02 21:46:53;;;;;;;61.70;26.70;;;;;;;3.22;73.75;98442.08;25139;1316;3027189;-72
2022/02/02 21:49:24;;;;;;;54.40;24.40;;;;;;;3.21;73.92;98439.34;25168;1315;3026334;-73
2022/02/02 21:52:01;;;;;;;58.30;23.80;;;;;;;3.73;72.63;98445.02;25157;1316;3051736;-66
2022/02/02 21:54:31;;;;;;;62.60;26.10;;;;;;;4.29;70.29;98440.14;25137;1314;3051640;-69
2022/02/02 21:57:00;;;;;;;65.20;27.40;;;;;;;4.33;69.86;98440.80;25127;1315;3028563;-73
2022/02/02 21:59:28;;;;;;;59.50;26.60;;;;;;;4.18;70.22;98440.70;25199;1316;3052576;-72
2022/02/02 22:01:57;;;;;;;67.10;28.30;;;;;;;4.08;70.65;98438.61;25173;1315;3026768;-71
2022/02/02 22:04:26;;;;;;;66.90;28.40;;;;;;;3.91;71.12;98436.48;25154;1316;3051584;-70
2022/02/02 22:06:55;;;;;;;70.70;28.40;;;;;;;3.75;71.72;98436.59;25151;1315;3026570;-73
2022/02/02 22:09:24;;;;;;;66.70;28.70;;;;;;;3.62;72.21;98442.79;25122;1316;3068385;-70
2022/02/02 22:11:53;;;;;;;65.80;27.50;;;;;;;3.54;72.67;98446.96;25201;1316;3028774;-75
2022/02/02 22:14:23;;;;;;;55.80;25.90;;;;;;;3.46;72.84;98453.24;25218;1316;3049676;-71
2022/02/02 22:16:53;;;;;;;65.30;23.80;;;;;;;3.34;73.16;98463.66;25179;1316;3027494;-72
2022/02/02 22:19:22;;;;;;;52.60;23.30;;;;;;;3.29;73.48;98466.00;25148;1316;3026615;-71
2022/02/02 22:21:51;;;;;;;41.40;19.80;;;;;;;3.25;73.74;98474.64;25144;1315;3026270;-70
2022/02/02 22:24:21;;;;;;;50.80;22.90;;;;;;;3.25;73.62;98469.11;25184;1315;3069909;-71
2022/02/02 22:26:50;;;;;;;41.40;20.00;;;;;;;3.29;73.59;98474.13;25173;1315;3026668;-71
2022/02/02 22:29:19;;;;;;;43.70;20.10;;;;;;;3.80;72.52;98477.58;25124;1316;3026619;-71
2022/02/02 22:31:48;;;;;;;48.80;21.00;;;;;;;4.37;70.01;98478.08;25163;1316;3070503;-70
2022/02/02 22:34:17;;;;;;;48.20;21.40;;;;;;;4.52;69.23;98480.77;25187;1315;3026265;-72
2022/02/02 22:36:46;;;;;;;51.90;23.40;;;;;;;4.46;69.35;98477.25;25205;1316;3050427;-71
2022/02/02 22:39:15;;;;;;;49.20;24.40;;;;;;;4.29;69.65;98476.36;25128;1316;3029330;-70